Time;durP1;ratioP1;P1;durP2;ratioP2;P2;SDS_P1;SDS_P2;PMS_P1;PMS_P2;Temp;Humidity;BMP_temperature;BMP_pressure;BME280_temperature;BME280_humidity;BME280_pressure;Samples;Min_cycle;Max_cycle;Signal;HPM_P1;HPM_P2
2021/03/02 00:00:25;;;;;;;3.95;3.17;;;23.10;29.30;;;;;;4991863;28;20411;-64
2021/03/02 00:02:51;;;;;;;3.53;2.90;;;23.20;29.30;;;;;;4992283;28;20782;-64
2021/03/02 00:05:17;;;;;;;3.63;2.95;;;23.10;29.30;;;;;;4992205;28;20874;-64
2021/03/02 00:07:42;;;;;;;3.90;3.20;;;23.10;29.30;;;;;;4992355;28;20478;-65
2021/03/02 00:10:10;;;;;;;3.57;3.00;;;23.10;29.30;;;;;;4991194;28;20390;-63
2021/03/02 00:12:37;;;;;;;3.72;2.97;;;23.10;29.30;;;;;;4991826;28;20414;-65
2021/03/02 00:15:05;;;;;;;3.70;3.20;;;23.10;29.30;;;;;;4991888;28;20401;-64
2021/03/02 00:17:49;;;;;;;4.50;3.50;;;23.10;29.30;;;;;;4992105;28;20398;-63
2021/03/02 00:20:24;;;;;;;3.63;2.95;;;23.10;29.20;;;;;;4990415;28;20386;-64
2021/03/02 00:23:13;;;;;;;4.13;3.10;;;23.00;29.20;;;;;;4983158;28;20414;-64
2021/03/02 00:25:42;;;;;;;4.25;3.10;;;23.00;29.10;;;;;;4981178;28;21113;-65
2021/03/02 00:28:09;;;;;;;4.03;3.10;;;23.00;29.10;;;;;;4972475;28;20451;-64
2021/03/02 00:30:36;;;;;;;3.92;3.17;;;23.00;29.10;;;;;;4972981;28;20423;-63
2021/03/02 00:33:05;;;;;;;4.15;3.10;;;23.00;29.10;;;;;;4973273;28;20392;-64
2021/03/02 00:35:31;;;;;;;3.17;2.83;;;23.00;29.10;;;;;;4982009;28;20394;-64
2021/03/02 00:37:57;;;;;;;4.22;3.22;;;23.00;29.10;;;;;;4992015;28;20814;-64
2021/03/02 00:40:23;;;;;;;4.23;3.20;;;23.00;29.10;;;;;;4978159;28;20543;-64
2021/03/02 00:42:50;;;;;;;3.83;3.07;;;23.00;29.10;;;;;;4972593;28;20435;-64
2021/03/02 00:45:17;;;;;;;3.65;3.00;;;23.00;29.10;;;;;;4972444;28;20404;-64
2021/03/02 00:47:43;;;;;;;3.63;3.22;;;22.90;29.00;;;;;;4979648;28;20401;-64
2021/03/02 00:50:10;;;;;;;3.50;2.88;;;22.90;29.00;;;;;;4991316;28;20477;-64
2021/03/02 00:52:36;;;;;;;3.90;2.90;;;22.90;29.00;;;;;;4991450;28;20490;-64
2021/03/02 00:55:04;;;;;;;3.75;2.80;;;22.90;29.00;;;;;;4991465;28;20453;-64
2021/03/02 00:57:30;;;;;;;3.95;3.17;;;22.90;29.00;;;;;;4991225;28;20410;-64
2021/03/02 00:59:55;;;;;;;3.57;2.90;;;22.90;29.00;;;;;;4973025;28;20446;-64
2021/03/02 01:02:21;;;;;;;4.00;3.00;;;22.90;29.00;;;;;;4971551;28;20481;-64
2021/03/02 01:04:47;;;;;;;3.73;3.00;;;22.90;28.90;;;;;;4972293;28;20388;-64
2021/03/02 01:07:12;;;;;;;3.37;2.83;;;22.80;28.90;;;;;;4972374;28;20893;-64
2021/03/02 01:09:38;;;;;;;3.83;2.80;;;22.80;28.90;;;;;;4972089;28;20392;-64
2021/03/02 01:12:04;;;;;;;4.27;2.90;;;22.80;28.90;;;;;;4972043;28;20399;-64
2021/03/02 01:14:30;;;;;;;3.63;2.90;;;22.80;28.90;;;;;;4971851;28;20400;-64
2021/03/02 01:16:56;;;;;;;3.58;2.90;;;22.80;28.80;;;;;;4972546;28;20744;-64
2021/03/02 01:19:22;;;;;;;4.40;2.97;;;22.80;28.90;;;;;;4972268;28;20454;-64
2021/03/02 01:21:48;;;;;;;4.63;2.80;;;22.80;28.80;;;;;;4972193;28;20431;-64
2021/03/02 01:24:14;;;;;;;3.42;2.80;;;22.80;28.80;;;;;;4971610;28;20425;-64
2021/03/02 01:26:40;;;;;;;3.60;2.92;;;22.80;28.80;;;;;;4972590;28;20431;-64
2021/03/02 01:29:06;;;;;;;3.30;2.80;;;22.80;28.80;;;;;;4975950;28;20488;-64
2021/03/02 01:31:32;;;;;;;3.60;2.80;;;22.80;28.80;;;;;;4990597;28;20404;-64
2021/03/02 01:33:57;;;;;;;3.78;3.03;;;22.80;28.80;;;;;;4975659;28;20879;-64
2021/03/02 01:36:23;;;;;;;4.47;2.90;;;22.80;28.80;;;;;;4975266;28;20490;-64
2021/03/02 01:38:49;;;;;;;3.50;2.70;;;22.80;28.80;;;;;;4975754;28;20495;-64
2021/03/02 01:41:15;;;;;;;3.67;3.05;;;22.70;28.80;;;;;;4975562;28;20491;-64
2021/03/02 01:43:41;;;;;;;4.03;2.83;;;22.70;28.80;;;;;;4974153;28;20454;-64
2021/03/02 01:46:07;;;;;;;3.85;2.70;;;22.70;28.70;;;;;;4974750;28;20400;-63
2021/03/02 01:48:35;;;;;;;3.78;3.08;;;22.70;28.80;;;;;;4974020;28;20769;-64
2021/03/02 01:51:02;;;;;;;4.38;3.00;;;22.70;28.80;;;;;;4973799;28;20392;-64
2021/03/02 01:53:27;;;;;;;3.00;2.70;;;22.70;28.70;;;;;;4974855;28;20440;-64
2021/03/02 01:55:53;;;;;;;4.17;3.07;;;22.70;28.70;;;;;;4974868;28;20761;-64
2021/03/02 01:58:19;;;;;;;3.78;3.20;;;22.60;28.60;;;;;;4974296;28;20411;-64
2021/03/02 02:00:46;;;;;;;4.17;2.90;;;22.70;28.70;;;;;;4974844;28;20514;-63
2021/03/02 02:03:14;;;;;;;3.30;2.73;;;22.60;28.70;;;;;;4973283;28;20424;-62
2021/03/02 02:05:46;;;;;;;3.75;2.92;;;22.60;28.60;;;;;;4974558;28;20388;-63
2021/03/02 02:08:16;;;;;;;3.33;2.90;;;22.60;28.60;;;;;;4974267;28;20388;-63
2021/03/02 02:10:47;;;;;;;4.18;3.10;;;22.60;28.60;;;;;;4974566;28;20400;-63
2021/03/02 02:13:27;;;;;;;3.85;3.10;;;22.60;28.60;;;;;;4974403;28;20420;-62
2021/03/02 02:15:57;;;;;;;4.07;3.22;;;22.60;28.70;;;;;;4974554;28;20404;-63
2021/03/02 02:18:28;;;;;;;4.27;3.00;;;22.60;28.60;;;;;;4973919;28;20391;-63
2021/03/02 02:21:12;;;;;;;3.72;2.92;;;22.60;28.60;;;;;;4974381;28;20396;-63
2021/03/02 02:24:00;;;;;;;4.03;3.17;;;22.60;28.60;;;;;;4974354;28;20408;-63
2021/03/02 02:26:55;;;;;;;3.85;3.10;;;22.50;28.60;;;;;;4963017;28;20404;-62
2021/03/02 02:29:26;;;;;;;3.42;2.83;;;22.50;28.60;;;;;;4989389;28;20449;-62
2021/03/02 02:31:54;;;;;;;3.38;2.80;;;22.50;28.50;;;;;;4973568;28;20392;-63
2021/03/02 02:34:22;;;;;;;3.90;3.10;;;22.50;28.50;;;;;;4972963;28;20408;-63
2021/03/02 02:36:54;;;;;;;4.13;3.20;;;22.50;28.50;;;;;;4973905;28;20404;-63
2021/03/02 02:39:21;;;;;;;3.50;2.90;;;22.50;28.50;;;;;;4973189;28;20916;-62
2021/03/02 02:41:48;;;;;;;3.40;2.72;;;22.50;28.50;;;;;;4973880;28;20432;-63
2021/03/02 02:44:17;;;;;;;3.67;2.88;;;22.50;28.50;;;;;;4975771;28;20406;-64
2021/03/02 02:46:43;;;;;;;3.65;2.65;;;22.50;28.50;;;;;;4976432;28;20423;-63
2021/03/02 02:49:11;;;;;;;3.17;2.80;;;22.50;28.50;;;;;;4973927;28;20999;-64
2021/03/02 02:51:38;;;;;;;3.45;2.83;;;22.40;28.40;;;;;;4990186;28;20517;-64
2021/03/02 02:54:05;;;;;;;3.20;2.70;;;22.50;28.40;;;;;;4992404;28;20421;-63
2021/03/02 02:56:32;;;;;;;3.60;3.08;;;22.50;28.40;;;;;;4992619;28;20651;-64
2021/03/02 02:59:16;;;;;;;3.47;2.80;;;22.40;28.40;;;;;;4993166;28;20394;-64
2021/03/02 03:01:45;;;;;;;3.55;2.67;;;22.40;28.40;;;;;;4992925;28;20406;-63
2021/03/02 03:04:16;;;;;;;3.50;2.75;;;22.40;28.40;;;;;;4993078;28;20406;-62
2021/03/02 03:06:44;;;;;;;3.05;2.72;;;22.40;28.40;;;;;;4993084;28;20392;-63
2021/03/02 03:09:11;;;;;;;3.65;2.90;;;22.40;28.40;;;;;;4992936;28;20386;-63
2021/03/02 03:11:41;;;;;;;2.72;2.50;;;22.40;28.40;;;;;;4989231;28;20873;-64
2021/03/02 03:14:11;;;;;;;3.55;2.53;;;22.40;28.40;;;;;;4973361;28;20424;-64
2021/03/02 03:16:40;;;;;;;2.97;2.50;;;22.40;28.40;;;;;;4972886;28;20404;-63
2021/03/02 03:19:12;;;;;;;3.00;2.50;;;22.40;28.30;;;;;;4973434;28;20916;-63
2021/03/02 03:21:39;;;;;;;3.03;2.50;;;22.40;28.30;;;;;;4973380;28;20408;-64
2021/03/02 03:24:07;;;;;;;3.30;2.80;;;22.30;28.30;;;;;;4972762;28;20404;-64
2021/03/02 03:26:34;;;;;;;3.25;2.55;;;22.30;28.30;;;;;;4972601;28;20394;-63
2021/03/02 03:29:01;;;;;;;2.85;2.35;;;22.30;28.30;;;;;;4973292;28;20408;-64
2021/03/02 03:31:26;;;;;;;3.22;2.63;;;22.30;28.20;;;;;;4973141;28;20384;-63
2021/03/02 03:33:53;;;;;;;3.25;2.70;;;22.30;28.20;;;;;;4973228;28;20412;-65
2021/03/02 03:36:20;;;;;;;2.87;2.50;;;22.30;28.20;;;;;;4971418;28;20400;-63
2021/03/02 03:38:46;;;;;;;2.88;2.20;;;22.30;28.20;;;;;;4973046;28;20444;-63
2021/03/02 03:41:14;;;;;;;3.53;2.67;;;22.30;28.20;;;;;;4973018;28;20423;-64
2021/03/02 03:43:40;;;;;;;3.30;2.50;;;22.20;28.20;;;;;;4973012;28;20404;-62
2021/03/02 03:46:06;;;;;;;2.90;2.60;;;22.20;28.20;;;;;;4972003;28;20396;-63
2021/03/02 03:48:32;;;;;;;2.80;2.45;;;22.20;28.20;;;;;;4970804;28;20400;-63
2021/03/02 03:50:58;;;;;;;2.63;2.20;;;22.20;28.20;;;;;;4971970;28;20493;-63
2021/03/02 03:53:26;;;;;;;3.47;2.35;;;22.20;28.20;;;;;;4971885;28;20923;-64
2021/03/02 03:55:53;;;;;;;2.70;2.20;;;22.20;28.20;;;;;;4971548;28;20861;-64
2021/03/02 03:58:23;;;;;;;2.67;2.30;;;22.20;28.20;;;;;;4972474;28;20899;-63
2021/03/02 04:00:50;;;;;;;2.80;2.40;;;22.20;28.20;;;;;;4972603;28;20435;-64
2021/03/02 04:03:18;;;;;;;3.30;2.38;;;22.20;28.10;;;;;;4972544;28;20837;-63
2021/03/02 04:05:45;;;;;;;3.55;2.47;;;22.20;28.10;;;;;;4972426;28;20384;-63
2021/03/02 04:08:11;;;;;;;3.70;2.20;;;22.20;28.30;;;;;;4972309;28;20404;-63
2021/03/02 04:10:36;;;;;;;3.73;2.40;;;22.10;28.50;;;;;;4971386;28;20393;-63
2021/03/02 04:13:10;;;;;;;4.60;2.40;;;22.10;28.80;;;;;;4972267;28;20901;-62
2021/03/02 04:15:37;;;;;;;4.28;2.50;;;22.10;29.20;;;;;;4972372;28;20467;-63
2021/03/02 04:18:03;;;;;;;2.83;2.30;;;22.20;29.00;;;;;;4972424;28;20880;-64
2021/03/02 04:20:29;;;;;;;3.08;2.20;;;22.20;29.10;;;;;;4972854;28;20395;-64
2021/03/02 04:22:57;;;;;;;3.47;2.40;;;22.20;29.30;;;;;;4972261;28;20424;-65
2021/03/02 04:25:23;;;;;;;3.78;2.30;;;22.20;29.40;;;;;;4972450;28;20400;-64
2021/03/02 04:27:49;;;;;;;3.63;2.40;;;22.20;29.30;;;;;;4984400;28;20398;-62
2021/03/02 04:30:16;;;;;;;6.57;2.10;;;22.20;29.30;;;;;;4977983;28;20417;-64
2021/03/02 04:32:41;;;;;;;6.00;2.03;;;22.20;29.80;;;;;;4974551;28;20759;-63
2021/03/02 04:35:07;;;;;;;9.43;2.30;;;22.20;30.70;;;;;;4972598;28;20462;-65
2021/03/02 04:37:33;;;;;;;5.57;2.30;;;22.20;31.60;;;;;;4972636;28;20444;-65
2021/03/02 04:39:59;;;;;;;6.07;2.20;;;22.20;30.40;;;;;;4971649;28;20490;-64
2021/03/02 04:42:24;;;;;;;6.57;2.50;;;22.20;31.10;;;;;;4971596;28;20420;-64
2021/03/02 04:44:50;;;;;;;4.32;2.05;;;22.20;31.00;;;;;;4970943;28;20396;-62
2021/03/02 04:47:15;;;;;;;7.60;2.30;;;22.20;31.30;;;;;;4972316;28;20825;-62
2021/03/02 04:49:41;;;;;;;7.00;2.20;;;22.20;31.60;;;;;;4972250;28;20917;-62
2021/03/02 04:52:07;;;;;;;3.87;2.20;;;22.20;31.30;;;;;;4972105;28;20396;-62
2021/03/02 04:54:32;;;;;;;3.42;1.92;;;22.20;31.20;;;;;;4971734;28;20388;-63
2021/03/02 04:56:58;;;;;;;4.30;2.17;;;22.30;30.60;;;;;;4972206;28;20404;-63
2021/03/02 04:59:24;;;;;;;5.93;2.00;;;22.30;30.00;;;;;;4970747;28;20919;-63
2021/03/02 05:01:49;;;;;;;5.57;2.00;;;22.30;29.80;;;;;;4972873;28;20419;-63
2021/03/02 05:04:15;;;;;;;3.35;2.08;;;22.30;29.90;;;;;;4977182;28;20506;-63
2021/03/02 05:06:41;;;;;;;5.73;2.30;;;22.20;30.10;;;;;;4975783;28;20395;-65
2021/03/02 05:09:06;;;;;;;7.68;2.50;;;22.20;29.90;;;;;;4975839;28;20396;-61
2021/03/02 05:11:32;;;;;;;6.20;2.13;;;22.20;29.70;;;;;;4976124;28;20388;-61
2021/03/02 05:13:57;;;;;;;6.25;2.58;;;22.20;29.70;;;;;;4975861;28;20420;-61
2021/03/02 05:16:23;;;;;;;7.93;2.70;;;22.20;29.10;;;;;;4975116;28;20507;-62
2021/03/02 05:18:49;;;;;;;7.50;3.13;;;22.10;28.90;;;;;;4990919;28;20404;-62
2021/03/02 05:21:14;;;;;;;6.33;2.73;;;22.10;28.30;;;;;;4976087;28;20392;-62
2021/03/02 05:23:40;;;;;;;4.80;2.35;;;22.10;28.20;;;;;;4975730;28;20490;-61
2021/03/02 05:26:06;;;;;;;5.50;2.50;;;22.10;28.00;;;;;;4975217;28;20395;-61
2021/03/02 05:28:31;;;;;;;3.90;2.20;;;22.10;27.90;;;;;;4974150;28;20403;-62
2021/03/02 05:30:57;;;;;;;4.10;2.47;;;22.10;27.90;;;;;;4976112;28;20954;-61
2021/03/02 05:33:23;;;;;;;5.20;2.05;;;22.10;27.90;;;;;;4986947;28;20453;-62
2021/03/02 05:35:49;;;;;;;7.07;2.23;;;22.10;28.10;;;;;;4995152;28;20390;-61
2021/03/02 05:38:14;;;;;;;5.68;2.72;;;22.10;28.00;;;;;;4995181;28;20398;-61
2021/03/02 05:40:41;;;;;;;4.30;2.05;;;22.10;27.90;;;;;;4994096;28;20395;-61
2021/03/02 05:43:07;;;;;;;4.68;2.10;;;22.00;27.90;;;;;;4982336;28;21449;-61
2021/03/02 05:45:33;;;;;;;4.20;2.17;;;22.10;27.80;;;;;;4989236;28;20396;-61
2021/03/02 05:47:59;;;;;;;3.87;2.10;;;22.00;28.20;;;;;;4976565;28;20443;-61
2021/03/02 05:50:26;;;;;;;6.72;2.33;;;22.00;28.30;;;;;;4990996;28;20452;-62
2021/03/02 05:52:54;;;;;;;4.78;2.15;;;22.00;28.50;;;;;;4993748;28;20406;-62
2021/03/02 05:55:20;;;;;;;5.80;2.22;;;22.00;28.60;;;;;;4986641;28;20396;-61
2021/03/02 05:57:48;;;;;;;5.53;2.13;;;21.90;28.80;;;;;;4976576;28;20435;-61
2021/03/02 06:00:14;;;;;;;7.10;2.60;;;21.90;29.10;;;;;;4984924;28;20403;-62
2021/03/02 06:02:40;;;;;;;5.57;1.93;;;21.90;29.30;;;;;;4979870;28;20908;-62
2021/03/02 06:05:06;;;;;;;9.95;2.28;;;21.90;29.30;;;;;;4973993;28;20411;-62
2021/03/02 06:07:32;;;;;;;6.50;2.40;;;21.90;29.30;;;;;;4974558;28;20392;-61
2021/03/02 06:09:58;;;;;;;4.93;1.90;;;21.80;29.20;;;;;;4975045;28;20900;-61
2021/03/02 06:12:23;;;;;;;5.70;2.10;;;21.90;29.20;;;;;;4974546;28;20886;-62
2021/03/02 06:15:05;;;;;;;4.07;1.90;;;21.90;29.10;;;;;;4973406;28;20401;-61
2021/03/02 06:17:31;;;;;;;4.93;2.10;;;21.90;29.00;;;;;;4974806;28;20404;-61
2021/03/02 06:19:57;;;;;;;4.97;1.93;;;21.90;28.90;;;;;;4974925;28;20388;-61
2021/03/02 06:22:41;;;;;;;5.07;1.80;;;21.90;28.90;;;;;;4975122;28;20451;-61
2021/03/02 06:25:26;;;;;;;4.20;2.00;;;21.90;28.90;;;;;;4974875;28;20491;-60
2021/03/02 06:27:51;;;;;;;5.60;1.90;;;21.90;28.80;;;;;;4974788;28;20403;-60
2021/03/02 06:30:18;;;;;;;3.95;2.00;;;21.80;28.80;;;;;;4974727;28;20400;-61
2021/03/02 06:32:49;;;;;;;3.97;2.00;;;21.90;28.80;;;;;;4974183;28;20463;-61
2021/03/02 06:35:34;;;;;;;4.07;2.20;;;21.90;28.80;;;;;;4974894;28;20512;-60
2021/03/02 06:38:01;;;;;;;3.88;1.90;;;21.80;28.70;;;;;;4974707;28;20482;-61
2021/03/02 06:40:48;;;;;;;3.85;2.03;;;21.80;29.20;;;;;;4974318;28;20393;-61
2021/03/02 06:43:29;;;;;;;3.70;1.90;;;21.80;28.70;;;;;;4974376;28;20416;-61
2021/03/02 06:45:55;;;;;;;3.20;1.85;;;21.80;28.70;;;;;;4974466;28;20872;-61
2021/03/02 06:48:20;;;;;;;3.00;1.90;;;21.80;28.70;;;;;;4974456;28;20400;-61
2021/03/02 06:50:46;;;;;;;2.70;1.98;;;21.80;29.20;;;;;;4973850;28;20931;-61
2021/03/02 06:53:12;;;;;;;3.90;2.00;;;21.80;28.60;;;;;;4974386;28;21011;-61
2021/03/02 06:55:39;;;;;;;3.20;2.00;;;21.80;28.70;;;;;;4974315;28;20403;-61
2021/03/02 06:58:13;;;;;;;5.03;2.17;;;21.80;28.70;;;;;;4974363;28;20428;-61
2021/03/02 07:00:45;;;;;;;3.78;2.17;;;21.80;28.60;;;;;;4973695;28;20888;-61
2021/03/02 07:03:27;;;;;;;2.40;1.85;;;21.80;28.60;;;;;;4974185;28;20419;-61
2021/03/02 07:05:56;;;;;;;2.50;1.92;;;21.80;28.60;;;;;;4974155;28;20795;-61
2021/03/02 07:08:22;;;;;;;3.90;2.03;;;21.80;28.60;;;;;;4974137;28;20864;-61
2021/03/02 07:10:53;;;;;;;2.53;1.73;;;21.80;28.50;;;;;;4973906;28;20403;-61
2021/03/02 07:13:19;;;;;;;2.80;2.00;;;21.80;28.50;;;;;;4973740;28;20515;-61
2021/03/02 07:15:47;;;;;;;3.15;1.90;;;21.80;28.50;;;;;;4973888;28;20440;-61
2021/03/02 07:18:17;;;;;;;2.85;1.88;;;21.80;28.50;;;;;;4974096;28;20400;-61
2021/03/02 07:20:49;;;;;;;2.63;2.00;;;21.80;28.40;;;;;;4973241;28;20430;-61
2021/03/02 07:23:16;;;;;;;3.00;2.17;;;21.80;28.50;;;;;;4973810;28;20507;-61
2021/03/02 07:25:45;;;;;;;2.65;2.10;;;21.90;28.50;;;;;;4973391;28;20392;-61
2021/03/02 07:28:12;;;;;;;2.97;2.10;;;21.80;28.40;;;;;;4973963;28;20443;-61
2021/03/02 07:30:39;;;;;;;2.33;1.90;;;21.80;28.50;;;;;;4973199;28;20421;-61
2021/03/02 07:33:06;;;;;;;3.40;2.10;;;21.90;28.50;;;;;;4973705;28;20385;-61
2021/03/02 07:35:32;;;;;;;2.95;2.22;;;21.80;28.40;;;;;;4973569;28;20471;-61
2021/03/02 07:38:23;;;;;;;2.90;2.20;;;21.90;28.50;;;;;;4973641;28;20482;-61
2021/03/02 07:40:56;;;;;;;3.40;2.42;;;21.90;28.40;;;;;;4972952;28;20483;-61
2021/03/02 07:43:35;;;;;;;3.30;2.25;;;21.90;28.40;;;;;;4973396;28;20416;-61
2021/03/02 07:46:31;;;;;;;3.00;2.30;;;21.90;28.30;;;;;;4973469;28;20464;-61
2021/03/02 07:48:57;;;;;;;3.00;2.40;;;22.00;28.40;;;;;;4960417;28;20408;-61
2021/03/02 07:51:24;;;;;;;2.90;2.25;;;22.00;28.40;;;;;;4973283;28;20439;-60
2021/03/02 07:53:51;;;;;;;2.72;2.30;;;21.90;28.30;;;;;;4972350;28;20400;-61
2021/03/02 07:56:22;;;;;;;2.85;2.53;;;22.00;28.30;;;;;;4972278;28;20910;-61
2021/03/02 07:59:16;;;;;;;3.40;2.50;;;21.90;28.30;;;;;;4972104;28;20936;-61
2021/03/02 08:01:42;;;;;;;3.25;2.65;;;21.90;28.30;;;;;;4972920;28;20911;-61
2021/03/02 08:04:15;;;;;;;3.10;2.50;;;21.90;28.40;;;;;;4972089;28;20419;-61
2021/03/02 08:06:41;;;;;;;3.13;2.50;;;21.90;28.40;;;;;;4970504;28;20416;-61
2021/03/02 08:09:25;;;;;;;3.22;2.60;;;21.90;28.50;;;;;;4972927;28;20401;-61
2021/03/02 08:11:52;;;;;;;3.13;2.30;;;21.90;28.50;;;;;;4972949;28;20396;-61
2021/03/02 08:14:18;;;;;;;2.80;2.30;;;21.90;28.40;;;;;;4972933;28;20411;-61
2021/03/02 08:16:53;;;;;;;3.08;2.50;;;21.90;28.40;;;;;;4972476;28;20495;-61
2021/03/02 08:19:38;;;;;;;2.90;2.40;;;22.00;28.40;;;;;;4972950;28;20482;-61
2021/03/02 08:22:19;;;;;;;3.00;2.50;;;22.10;28.40;;;;;;4972892;28;20439;-61
2021/03/02 08:25:04;;;;;;;3.03;2.53;;;22.20;28.30;;;;;;4971074;28;20885;-61
2021/03/02 08:27:56;;;;;;;2.67;2.20;;;22.20;28.30;;;;;;4987677;28;20412;-61
2021/03/02 08:30:28;;;;;;;3.63;2.30;;;22.30;28.30;;;;;;4971644;28;20400;-61
2021/03/02 08:32:56;;;;;;;3.15;2.47;;;22.30;28.20;;;;;;4972573;28;20404;-61
2021/03/02 08:35:29;;;;;;;2.97;2.47;;;22.30;28.20;;;;;;4972723;28;20396;-61
2021/03/02 08:37:57;;;;;;;3.25;2.35;;;22.30;28.10;;;;;;4972249;28;20396;-61
2021/03/02 08:40:32;;;;;;;3.30;2.70;;;22.40;28.20;;;;;;4972824;28;20392;-61
2021/03/02 08:43:14;;;;;;;2.72;2.40;;;22.40;28.20;;;;;;4972414;28;20423;-61
2021/03/02 08:45:50;;;;;;;3.65;2.53;;;22.50;28.20;;;;;;4972586;28;20824;-61
2021/03/02 08:48:30;;;;;;;2.95;2.65;;;22.40;28.10;;;;;;4972655;28;20944;-61
2021/03/02 08:50:59;;;;;;;2.70;2.40;;;22.50;28.10;;;;;;4972430;28;20432;-61
2021/03/02 08:53:45;;;;;;;2.75;2.40;;;22.50;28.10;;;;;;4972546;28;20388;-61
2021/03/02 08:56:17;;;;;;;2.85;2.53;;;22.60;28.10;;;;;;4972642;28;20443;-61
2021/03/02 08:58:44;;;;;;;3.17;2.55;;;22.50;28.00;;;;;;4972061;28;20392;-61
2021/03/02 09:01:23;;;;;;;2.80;2.33;;;22.60;28.00;;;;;;4972562;28;20400;-61
2021/03/02 09:03:50;;;;;;;2.83;2.53;;;22.60;28.00;;;;;;4972466;28;20958;-61
2021/03/02 09:06:20;;;;;;;2.80;2.40;;;22.60;28.00;;;;;;4972560;28;20423;-61
2021/03/02 09:09:00;;;;;;;2.93;2.53;;;22.60;28.00;;;;;;4971932;28;20561;-61
2021/03/02 09:11:40;;;;;;;3.30;2.60;;;22.70;28.00;;;;;;4972360;28;20805;-61
2021/03/02 09:14:12;;;;;;;2.83;2.50;;;22.70;28.00;;;;;;4972317;28;20424;-61
2021/03/02 09:16:47;;;;;;;3.67;2.72;;;22.70;28.00;;;;;;4972102;28;20405;-62
2021/03/02 09:19:33;;;;;;;3.30;2.40;;;22.70;28.00;;;;;;4972407;28;20408;-61
2021/03/02 09:22:07;;;;;;;2.58;2.30;;;22.70;27.90;;;;;;4972318;28;20438;-61
2021/03/02 09:24:36;;;;;;;2.80;2.28;;;22.70;28.00;;;;;;4972098;28;20443;-61
2021/03/02 09:27:12;;;;;;;3.05;2.42;;;22.70;27.90;;;;;;4972363;28;20395;-61
2021/03/02 09:29:47;;;;;;;2.67;2.20;;;22.80;28.00;;;;;;4972127;28;20400;-61
2021/03/02 09:32:33;;;;;;;2.97;2.50;;;22.70;28.00;;;;;;4972155;28;20388;-61
2021/03/02 09:35:01;;;;;;;2.60;2.15;;;22.70;28.00;;;;;;4970699;28;20409;-61
2021/03/02 09:37:27;;;;;;;3.03;2.40;;;22.70;28.00;;;;;;4972123;28;20396;-61
2021/03/02 09:40:02;;;;;;;3.55;2.70;;;22.70;28.00;;;;;;4972337;28;20380;-61
2021/03/02 09:42:29;;;;;;;3.50;2.65;;;22.70;28.00;;;;;;4972248;28;20490;-61
2021/03/02 09:44:59;;;;;;;2.95;2.35;;;22.80;28.20;;;;;;4971775;28;20491;-61
2021/03/02 09:47:33;;;;;;;3.05;2.58;;;22.70;28.10;;;;;;4972092;28;20915;-61
2021/03/02 09:50:02;;;;;;;3.45;2.60;;;22.70;28.10;;;;;;4975682;28;20392;-61
2021/03/02 09:52:29;;;;;;;3.10;2.57;;;22.70;28.10;;;;;;4974219;28;20396;-61
2021/03/02 09:55:19;;;;;;;3.13;2.30;;;22.80;28.20;;;;;;4974990;28;20400;-61
2021/03/02 09:57:57;;;;;;;3.20;2.88;;;22.80;28.10;;;;;;4975476;28;20432;-61
2021/03/02 10:00:30;;;;;;;2.92;2.50;;;22.70;28.10;;;;;;4975427;28;20507;-60
2021/03/02 10:02:58;;;;;;;2.90;2.50;;;22.70;28.10;;;;;;4975083;28;20498;-61
2021/03/02 10:05:53;;;;;;;3.58;2.53;;;22.70;28.00;;;;;;4975375;28;20946;-61
2021/03/02 10:08:27;;;;;;;2.70;2.30;;;22.80;28.10;;;;;;4962662;28;20733;-61
2021/03/02 10:11:03;;;;;;;2.88;2.40;;;22.80;28.10;;;;;;4974803;28;21395;-61
2021/03/02 10:13:29;;;;;;;3.00;2.50;;;22.80;28.10;;;;;;4974943;28;20951;-61
2021/03/02 10:16:10;;;;;;;2.83;2.30;;;22.80;28.10;;;;;;4975180;28;20984;-61
2021/03/02 10:18:36;;;;;;;2.78;2.40;;;22.80;28.10;;;;;;4974777;28;20609;-61
2021/03/02 10:21:07;;;;;;;3.43;2.17;;;22.80;28.20;;;;;;4974795;28;20397;-61
2021/03/02 10:23:34;;;;;;;2.92;2.40;;;22.80;28.20;;;;;;4974905;28;20486;-61
2021/03/02 10:26:00;;;;;;;3.40;2.50;;;22.80;28.30;;;;;;4974980;28;20384;-61
2021/03/02 10:28:30;;;;;;;3.05;2.63;;;22.80;28.30;;;;;;4974942;28;20458;-61
2021/03/02 10:30:56;;;;;;;2.92;2.58;;;22.80;28.40;;;;;;4974354;28;20392;-61
2021/03/02 10:33:22;;;;;;;2.70;2.22;;;22.70;28.30;;;;;;4974857;28;20400;-61
2021/03/02 10:35:48;;;;;;;2.95;2.40;;;22.80;28.40;;;;;;4974793;28;20403;-61
2021/03/02 10:38:13;;;;;;;3.27;2.50;;;22.80;28.40;;;;;;4974724;28;20404;-61
2021/03/02 10:40:39;;;;;;;3.20;2.22;;;22.80;28.40;;;;;;4974402;28;20396;-61
2021/03/02 10:43:05;;;;;;;2.83;2.37;;;22.70;28.30;;;;;;4974262;28;20495;-61
2021/03/02 10:45:30;;;;;;;2.50;2.10;;;22.80;28.30;;;;;;4974491;28;20388;-61
2021/03/02 10:47:56;;;;;;;2.90;2.30;;;22.80;28.30;;;;;;4974617;28;20443;-61
2021/03/02 10:50:22;;;;;;;3.10;2.22;;;22.80;28.30;;;;;;4974497;28;20388;-61
2021/03/02 10:52:47;;;;;;;3.00;2.40;;;22.80;28.30;;;;;;4974003;28;20400;-61
2021/03/02 10:55:13;;;;;;;3.60;2.50;;;22.80;28.30;;;;;;4974490;28;20384;-61
2021/03/02 10:57:39;;;;;;;2.97;2.30;;;22.90;28.40;;;;;;4974284;28;20475;-61
2021/03/02 11:00:05;;;;;;;2.83;2.15;;;22.90;28.40;;;;;;4973604;28;20434;-61
2021/03/02 11:02:31;;;;;;;2.70;2.17;;;22.80;28.40;;;;;;4974189;28;20423;-61
2021/03/02 11:04:57;;;;;;;2.73;2.33;;;22.90;28.50;;;;;;4973812;28;20423;-61
2021/03/02 11:07:22;;;;;;;2.57;2.20;;;22.80;28.50;;;;;;4974285;28;20751;-61
2021/03/02 11:09:50;;;;;;;2.55;2.22;;;22.80;28.50;;;;;;4974147;28;20864;-61
2021/03/02 11:12:15;;;;;;;2.40;1.98;;;22.80;28.50;;;;;;4973966;28;20388;-61
2021/03/02 11:14:41;;;;;;;2.83;2.40;;;22.90;28.60;;;;;;4973788;28;20760;-61
2021/03/02 11:17:07;;;;;;;2.57;2.10;;;22.80;28.60;;;;;;4973857;28;20396;-61
2021/03/02 11:19:33;;;;;;;3.13;2.38;;;22.80;28.60;;;;;;4973963;28;20404;-61
2021/03/02 11:21:58;;;;;;;2.97;2.13;;;22.80;28.70;;;;;;4973888;28;20404;-61
2021/03/02 11:24:24;;;;;;;2.60;2.10;;;22.80;28.60;;;;;;4973930;28;20396;-61
2021/03/02 11:26:50;;;;;;;2.90;2.20;;;22.80;28.60;;;;;;4973397;28;20388;-61
2021/03/02 11:29:17;;;;;;;2.85;2.17;;;22.90;28.70;;;;;;4973858;28;20407;-61
2021/03/02 11:31:43;;;;;;;2.55;2.03;;;22.90;28.60;;;;;;4973746;28;20447;-61
2021/03/02 11:34:08;;;;;;;2.70;2.20;;;22.90;28.70;;;;;;4973646;28;20396;-61
2021/03/02 11:36:34;;;;;;;2.43;2.10;;;22.90;28.70;;;;;;4973628;28;20402;-61
2021/03/02 11:38:59;;;;;;;2.50;2.10;;;23.00;28.70;;;;;;4973123;28;20396;-61
2021/03/02 11:41:25;;;;;;;2.90;2.00;;;23.00;28.70;;;;;;4973478;28;20411;-61
2021/03/02 11:43:51;;;;;;;3.00;2.30;;;23.00;28.70;;;;;;4973508;28;20411;-61
2021/03/02 11:46:16;;;;;;;2.77;2.20;;;23.00;28.70;;;;;;4973453;28;20480;-61
2021/03/02 11:48:42;;;;;;;2.47;1.90;;;23.00;28.70;;;;;;4973120;28;20757;-61
2021/03/02 11:51:08;;;;;;;2.60;2.00;;;23.10;28.70;;;;;;4973118;28;20393;-61
2021/03/02 11:53:33;;;;;;;3.25;2.20;;;23.00;28.70;;;;;;4973563;28;20404;-61
2021/03/02 11:55:59;;;;;;;2.35;1.90;;;23.10;28.70;;;;;;4973387;28;20945;-61
2021/03/02 11:58:25;;;;;;;2.53;2.00;;;23.10;28.60;;;;;;4973447;28;20447;-61
2021/03/02 12:00:51;;;;;;;2.67;1.90;;;23.10;28.70;;;;;;4972752;28;20465;-61
2021/03/02 12:03:17;;;;;;;2.55;1.98;;;23.20;28.70;;;;;;4973050;28;20511;-61
2021/03/02 12:05:44;;;;;;;2.60;2.00;;;23.20;28.70;;;;;;4973028;28;20403;-61
2021/03/02 12:08:09;;;;;;;2.38;1.73;;;23.20;28.70;;;;;;4973133;28;20400;-61
2021/03/02 12:10:35;;;;;;;2.80;2.03;;;23.20;28.70;;;;;;4972977;28;20396;-61
2021/03/02 12:13:01;;;;;;;2.30;1.80;;;23.20;28.70;;;;;;4972468;28;20412;-61
2021/03/02 12:15:26;;;;;;;2.45;1.90;;;23.20;28.70;;;;;;4973183;28;20467;-61
2021/03/02 12:17:52;;;;;;;2.77;2.00;;;23.20;28.80;;;;;;4972992;28;20796;-61
2021/03/02 12:20:18;;;;;;;2.35;1.90;;;23.20;28.70;;;;;;4972962;28;20400;-61
2021/03/02 12:22:43;;;;;;;2.83;1.80;;;23.20;28.70;;;;;;4972475;28;20455;-61
2021/03/02 12:25:10;;;;;;;2.45;1.80;;;23.30;28.70;;;;;;4972653;28;20879;-61
2021/03/02 12:27:36;;;;;;;2.35;1.65;;;23.30;28.60;;;;;;4972789;28;20424;-61
2021/03/02 12:30:05;;;;;;;2.83;1.90;;;23.40;28.60;;;;;;4972807;28;20861;-61
2021/03/02 12:32:30;;;;;;;2.05;1.73;;;23.30;28.60;;;;;;4972663;28;20400;-61
2021/03/02 12:34:56;;;;;;;2.20;1.70;;;23.40;28.60;;;;;;4972336;28;20542;-61
2021/03/02 12:37:22;;;;;;;2.80;1.70;;;23.40;28.60;;;;;;4972808;28;20885;-61
2021/03/02 12:39:47;;;;;;;2.40;1.70;;;23.50;28.60;;;;;;4972694;28;20395;-61
2021/03/02 12:42:13;;;;;;;2.60;1.60;;;23.50;28.60;;;;;;4972865;28;20776;-61
2021/03/02 12:44:38;;;;;;;2.60;1.80;;;23.50;28.60;;;;;;4972642;28;20423;-61
2021/03/02 12:47:04;;;;;;;2.10;1.50;;;23.50;28.50;;;;;;4972195;28;20388;-61
2021/03/02 12:49:30;;;;;;;2.17;1.70;;;23.60;28.50;;;;;;4972605;28;20400;-61
2021/03/02 12:51:55;;;;;;;2.40;1.80;;;23.60;28.50;;;;;;4972689;28;20392;-61
2021/03/02 12:54:21;;;;;;;2.20;1.60;;;23.60;28.50;;;;;;4972610;28;20401;-61
2021/03/02 12:56:47;;;;;;;2.15;1.60;;;23.70;28.50;;;;;;4972234;28;20916;-61